Portada
METAR-TAF:

METAR-TAF

Aeropuertos :

Dusambé, Tayikistán

Aeropuerto Internacional de Dusambé

latitud: 38-33N, longitud: 068-47E, altitud: 803 m

Observación

El informe se hizo hace 39 minutos, a las 16:00 UTC
Viento 4 kt del este
Temperatura 26°C
Humedad 39%
Presión 1011 hPa
Visibilidad 10 km o más
Escasas nubes a una altura de 6600 ft

METAR: UTDD 281600Z 10002MPS 9999 FEW066 26/11 Q1011 R09/D NOSIG RMK QFE690/0921

Hora: 21:39 (16:39 UTC)

Pronóstico

El informe se hizo hace 1 hora y 39 minutos, a las 15:00 UTC
Pronóstico válido del 28 a las 16 UTC al 29 a las 04 UTC
Viento 4 kt con dirección variable
Visibilidad: 6000 m
Nubes dispersas a una altura de 6600 ft, Cumulonimbus.
Cielo nuboso a una altura de 13000 ft
Probabilidad 40% :
Temporalmente
del 28 a las 16 UTC al 29 a las 04 UTC
Viento 16 kt con dirección variable
tormenta

TAF: UTDD 281500Z 2816/2904 VRB02MPS 6000 SCT066CB BKN130 PROB40 TEMPO 2816/2904 VRB08MPS TS

Observaciones y pronósticos meteorológicos de más de 4000 aeropuertos (mensajes METAR y TAF).

Los puntos amarillos y rojos representan las estaciones disponibles.

Ponga el ratón en el punto deseado para ver el nombre de la estación.

Haga clic para ver las observaciones y los pronósticos meteorológicos.

Para cambiar el mapa : haga clic en los botones verdes con una cruz de color negro para hacer un zoom, en el botón verde con un guión para alejar o en las flechas verdes para mapas adyacentes.


METAR-TAF: